BTK6509 WADD-WIII
Flight info
| Callsign | BTK6509 |
|---|---|
| Flight time | 1h 28m |
| Altitude | 36000 |
| Route | OKANG T4 FARIZ T6 KURUS |
| Aircraft | A320/M-SDE3FGHIRWY/LB1 |
Departure
| Time | 2026-05-07 19:21 |
|---|---|
| Airport | Denpasar I Gusti Ngurah Rai International Airport (WADD) |
Arrival
| Time | 2026-05-07 20:49 |
|---|---|
| Airport | Soekarno-Hatta International Airport (WIII) |
| Time | Latitude | Longitude | Altitude | Speed | Heading |
|---|---|---|---|---|---|
| 2026-05-07 18:57 | -8.74563 | 115.16340 | 32 ft | 0 kts | 358° |
| 2026-05-07 19:12 | -8.74573 | 115.16341 | 33 ft | 3 kts | 358° |
| 2026-05-07 19:12 | -8.74593 | 115.16341 | 33 ft | 3 kts | 358° |
| 2026-05-07 19:12 | -8.74610 | 115.16342 | 33 ft | 3 kts | 358° |
| 2026-05-07 19:12 | -8.74631 | 115.16343 | 30 ft | 3 kts | 358° |
| 2026-05-07 19:13 | -8.74651 | 115.16344 | 32 ft | 3 kts | 358° |
| 2026-05-07 19:13 | -8.74670 | 115.16345 | 30 ft | 3 kts | 344° |
| 2026-05-07 19:13 | -8.74686 | 115.16353 | 32 ft | 3 kts | 306° |
| 2026-05-07 19:13 | -8.74693 | 115.16370 | 28 ft | 3 kts | 273° |
| 2026-05-07 19:14 | -8.74693 | 115.16390 | 31 ft | 2 kts | 268° |
| 2026-05-07 19:14 | -8.74693 | 115.16391 | 31 ft | 0 kts | 268° |
| 2026-05-07 19:16 | -8.74693 | 115.16390 | 31 ft | 0 kts | 268° |
| 2026-05-07 19:16 | -8.74695 | 115.16341 | 31 ft | 13 kts | 268° |
| 2026-05-07 19:16 | -8.74698 | 115.16253 | 33 ft | 12 kts | 268° |
| 2026-05-07 19:16 | -8.74701 | 115.16172 | 33 ft | 14 kts | 268° |
| 2026-05-07 19:17 | -8.74706 | 115.16048 | 33 ft | 18 kts | 268° |
| 2026-05-07 19:17 | -8.74711 | 115.15927 | 33 ft | 16 kts | 268° |
| 2026-05-07 19:17 | -8.74716 | 115.15817 | 33 ft | 15 kts | 268° |
| 2026-05-07 19:17 | -8.74720 | 115.15706 | 32 ft | 16 kts | 268° |
| 2026-05-07 19:18 | -8.74724 | 115.15597 | 32 ft | 15 kts | 268° |
| 2026-05-07 19:18 | -8.74729 | 115.15498 | 32 ft | 13 kts | 267° |
| 2026-05-07 19:18 | -8.74731 | 115.15420 | 32 ft | 9 kts | 254° |
| 2026-05-07 19:18 | -8.74776 | 115.15389 | 31 ft | 8 kts | 176° |
| 2026-05-07 19:19 | -8.74797 | 115.15391 | 30 ft | 0 kts | 177° |
| 2026-05-07 19:19 | -8.74802 | 115.15391 | 31 ft | 2 kts | 177° |
| 2026-05-07 19:19 | -8.74846 | 115.15393 | 29 ft | 11 kts | 177° |
| 2026-05-07 19:19 | -8.74896 | 115.15441 | 29 ft | 11 kts | 80° |
| 2026-05-07 19:20 | -8.74893 | 115.15515 | 29 ft | 8 kts | 87° |
| 2026-05-07 19:20 | -8.74893 | 115.15517 | 29 ft | 0 kts | 88° |
| 2026-05-07 19:20 | -8.74890 | 115.15612 | 29 ft | 46 kts | 88° |
| 2026-05-07 19:20 | -8.74868 | 115.16171 | 28 ft | 110 kts | 88° |
| 2026-05-07 19:21 | -8.74825 | 115.17121 | 31 ft | 158 kts | 85° |
| 2026-05-07 19:21 | -8.74804 | 115.18284 | 493 ft | 166 kts | 92° |
| 2026-05-07 19:21 | -8.74774 | 115.19442 | 1145 ft | 164 kts | 91° |
| 2026-05-07 19:21 | -8.74733 | 115.20588 | 1753 ft | 164 kts | 90° |
| 2026-05-07 19:22 | -8.74677 | 115.21792 | 2005 ft | 181 kts | 90° |
| 2026-05-07 19:22 | -8.74615 | 115.23142 | 2154 ft | 203 kts | 88° |
| 2026-05-07 19:22 | -8.74548 | 115.24645 | 2294 ft | 226 kts | 88° |
| 2026-05-07 19:22 | -8.74476 | 115.26306 | 2503 ft | 245 kts | 88° |
| 2026-05-07 19:23 | -8.74052 | 115.28003 | 2929 ft | 257 kts | 64° |
| 2026-05-07 19:23 | -8.72852 | 115.29357 | 3442 ft | 266 kts | 36° |
| 2026-05-07 19:23 | -8.71085 | 115.29957 | 3936 ft | 276 kts | 4° |
| 2026-05-07 19:23 | -8.69204 | 115.29540 | 4438 ft | 284 kts | 332° |
| 2026-05-07 19:24 | -8.67741 | 115.28195 | 4918 ft | 288 kts | 308° |
| 2026-05-07 19:24 | -8.66501 | 115.26589 | 5402 ft | 291 kts | 307° |
| 2026-05-07 19:24 | -8.65269 | 115.24966 | 5886 ft | 291 kts | 307° |
| 2026-05-07 19:24 | -8.64049 | 115.23355 | 6341 ft | 294 kts | 307° |
| 2026-05-07 19:25 | -8.62801 | 115.21715 | 6791 ft | 295 kts | 307° |
| 2026-05-07 19:25 | -8.61548 | 115.20076 | 7261 ft | 294 kts | 308° |
| 2026-05-07 19:25 | -8.60296 | 115.18443 | 7725 ft | 294 kts | 308° |
| 2026-05-07 19:25 | -8.59037 | 115.16809 | 8143 ft | 296 kts | 308° |
| 2026-05-07 19:26 | -8.57769 | 115.15164 | 8543 ft | 298 kts | 308° |
| 2026-05-07 19:26 | -8.56493 | 115.13512 | 8980 ft | 298 kts | 308° |
| 2026-05-07 19:26 | -8.55218 | 115.11860 | 9390 ft | 299 kts | 309° |
| 2026-05-07 19:26 | -8.53935 | 115.10197 | 9779 ft | 301 kts | 309° |
| 2026-05-07 19:27 | -8.52647 | 115.08524 | 10081 ft | 305 kts | 308° |
| 2026-05-07 19:27 | -8.51325 | 115.06807 | 10193 ft | 314 kts | 308° |
| 2026-05-07 19:27 | -8.49968 | 115.05045 | 10310 ft | 322 kts | 308° |
| 2026-05-07 19:27 | -8.48581 | 115.03243 | 10429 ft | 328 kts | 308° |
| 2026-05-07 19:28 | -8.47168 | 115.01409 | 10547 ft | 333 kts | 308° |
| 2026-05-07 19:28 | -8.45737 | 114.99551 | 10761 ft | 332 kts | 308° |
| 2026-05-07 19:28 | -8.44373 | 114.97778 | 11638 ft | 308 kts | 307° |
| 2026-05-07 19:28 | -8.43103 | 114.96131 | 12656 ft | 288 kts | 307° |
| 2026-05-07 19:29 | -8.41831 | 114.94483 | 12973 ft | 309 kts | 307° |
| 2026-05-07 19:29 | -8.40464 | 114.92709 | 13113 ft | 331 kts | 307° |
| 2026-05-07 19:29 | -8.39002 | 114.90809 | 13238 ft | 353 kts | 307° |
| 2026-05-07 19:29 | -8.37457 | 114.88801 | 13435 ft | 370 kts | 307° |
| 2026-05-07 19:30 | -8.35859 | 114.86729 | 13888 ft | 377 kts | 306° |
| 2026-05-07 19:30 | -8.34239 | 114.84633 | 14450 ft | 379 kts | 307° |
| 2026-05-07 19:30 | -8.32633 | 114.82557 | 15014 ft | 382 kts | 307° |
| 2026-05-07 19:30 | -8.30995 | 114.80437 | 15554 ft | 384 kts | 306° |
| 2026-05-07 19:31 | -8.29325 | 114.78276 | 16117 ft | 387 kts | 307° |
| 2026-05-07 19:31 | -8.27666 | 114.76127 | 16652 ft | 389 kts | 307° |
| 2026-05-07 19:31 | -8.26017 | 114.73995 | 17153 ft | 392 kts | 306° |
| 2026-05-07 19:31 | -8.24331 | 114.71816 | 17646 ft | 396 kts | 306° |
| 2026-05-07 19:32 | -8.23184 | 114.70334 | 17969 ft | 398 kts | 306° |
| 2026-05-07 19:32 | -8.21477 | 114.68124 | 18435 ft | 401 kts | 307° |
| 2026-05-07 19:32 | -8.19760 | 114.65901 | 18867 ft | 402 kts | 306° |
| 2026-05-07 19:32 | -8.17476 | 114.62945 | 19458 ft | 404 kts | 306° |
| 2026-05-07 19:33 | -8.15743 | 114.60702 | 19905 ft | 406 kts | 306° |
| 2026-05-07 19:33 | -8.14568 | 114.59181 | 20202 ft | 407 kts | 307° |
| 2026-05-07 19:33 | -8.12821 | 114.56922 | 20614 ft | 410 kts | 307° |
| 2026-05-07 19:33 | -8.11062 | 114.54650 | 21056 ft | 411 kts | 307° |
| 2026-05-07 19:34 | -8.09297 | 114.52373 | 21470 ft | 413 kts | 307° |
| 2026-05-07 19:34 | -8.07521 | 114.50082 | 21872 ft | 416 kts | 307° |
| 2026-05-07 19:34 | -8.05736 | 114.47776 | 22270 ft | 418 kts | 307° |
| 2026-05-07 19:34 | -8.03942 | 114.45460 | 22716 ft | 419 kts | 307° |
| 2026-05-07 19:35 | -8.02144 | 114.43135 | 23140 ft | 420 kts | 307° |
| 2026-05-07 19:35 | -8.00342 | 114.40803 | 23502 ft | 423 kts | 307° |
| 2026-05-07 19:35 | -7.98530 | 114.38457 | 23834 ft | 425 kts | 307° |
| 2026-05-07 19:35 | -7.96709 | 114.36103 | 24199 ft | 426 kts | 307° |
| 2026-05-07 19:36 | -7.94884 | 114.33746 | 24511 ft | 428 kts | 308° |
| 2026-05-07 19:36 | -7.93046 | 114.31373 | 24760 ft | 431 kts | 308° |
| 2026-05-07 19:36 | -7.91216 | 114.29009 | 25008 ft | 435 kts | 308° |
| 2026-05-07 19:36 | -7.89350 | 114.26601 | 25310 ft | 436 kts | 307° |
| 2026-05-07 19:37 | -7.87452 | 114.24153 | 25585 ft | 439 kts | 308° |
| 2026-05-07 19:37 | -7.85567 | 114.21722 | 25862 ft | 441 kts | 308° |
| 2026-05-07 19:37 | -7.83674 | 114.19283 | 26124 ft | 443 kts | 308° |
| 2026-05-07 19:37 | -7.81798 | 114.16863 | 26402 ft | 445 kts | 307° |
| 2026-05-07 19:38 | -7.79892 | 114.14398 | 26715 ft | 446 kts | 307° |
| 2026-05-07 19:38 | -7.77981 | 114.11926 | 26988 ft | 448 kts | 307° |
| 2026-05-07 19:38 | -7.76057 | 114.09444 | 27244 ft | 450 kts | 307° |
| 2026-05-07 19:38 | -7.74167 | 114.06924 | 27562 ft | 451 kts | 305° |
| 2026-05-07 19:39 | -7.72380 | 114.04325 | 27837 ft | 452 kts | 303° |
| 2026-05-07 19:39 | -7.70662 | 114.01664 | 28099 ft | 454 kts | 302° |
| 2026-05-07 19:39 | -7.68975 | 113.98968 | 28357 ft | 456 kts | 301° |
| 2026-05-07 19:39 | -7.67288 | 113.96257 | 28597 ft | 458 kts | 302° |
| 2026-05-07 19:40 | -7.65578 | 113.93539 | 28824 ft | 460 kts | 302° |
| 2026-05-07 19:40 | -7.63839 | 113.90830 | 29059 ft | 461 kts | 302° |
| 2026-05-07 19:40 | -7.62075 | 113.88119 | 29235 ft | 464 kts | 303° |
| 2026-05-07 19:40 | -7.60295 | 113.85401 | 29475 ft | 465 kts | 303° |
| 2026-05-07 19:41 | -7.58506 | 113.82676 | 29710 ft | 466 kts | 303° |
| 2026-05-07 19:41 | -7.56716 | 113.79950 | 29968 ft | 467 kts | 303° |
| 2026-05-07 19:41 | -7.54920 | 113.77214 | 30163 ft | 468 kts | 303° |
| 2026-05-07 19:41 | -7.53125 | 113.74472 | 30390 ft | 469 kts | 303° |
| 2026-05-07 19:42 | -7.51332 | 113.71721 | 30604 ft | 470 kts | 303° |
| 2026-05-07 19:42 | -7.49544 | 113.68968 | 30853 ft | 470 kts | 303° |
| 2026-05-07 19:42 | -7.47757 | 113.66215 | 31124 ft | 469 kts | 303° |
| 2026-05-07 19:42 | -7.45975 | 113.63467 | 31417 ft | 468 kts | 303° |
| 2026-05-07 19:43 | -7.44195 | 113.60729 | 31709 ft | 467 kts | 303° |
| 2026-05-07 19:43 | -7.42412 | 113.57999 | 32011 ft | 466 kts | 303° |
| 2026-05-07 19:43 | -7.40632 | 113.55276 | 32306 ft | 465 kts | 303° |
| 2026-05-07 19:43 | -7.38852 | 113.52557 | 32611 ft | 464 kts | 303° |
| 2026-05-07 19:44 | -7.37077 | 113.49846 | 32918 ft | 463 kts | 303° |
| 2026-05-07 19:44 | -7.35308 | 113.47142 | 33222 ft | 462 kts | 303° |
| 2026-05-07 19:44 | -7.33543 | 113.44442 | 33537 ft | 461 kts | 303° |
| 2026-05-07 19:44 | -7.31781 | 113.41744 | 33850 ft | 460 kts | 303° |
| 2026-05-07 19:45 | -7.30022 | 113.39049 | 34096 ft | 460 kts | 303° |
| 2026-05-07 19:45 | -7.28264 | 113.36360 | 34346 ft | 460 kts | 303° |
| 2026-05-07 19:45 | -7.26509 | 113.33671 | 34603 ft | 459 kts | 303° |
| 2026-05-07 19:45 | -7.24754 | 113.30987 | 34855 ft | 458 kts | 303° |
| 2026-05-07 19:46 | -7.23001 | 113.28310 | 35107 ft | 458 kts | 303° |
| 2026-05-07 19:46 | -7.21249 | 113.25633 | 35356 ft | 457 kts | 303° |
| 2026-05-07 19:46 | -7.19502 | 113.22966 | 35593 ft | 456 kts | 303° |
| 2026-05-07 19:46 | -7.17756 | 113.20299 | 35788 ft | 456 kts | 303° |
| 2026-05-07 19:47 | -7.14265 | 113.14964 | 35854 ft | 456 kts | 303° |
| 2026-05-07 19:47 | -7.10778 | 113.09632 | 35855 ft | 456 kts | 303° |
| 2026-05-07 19:48 | -7.07294 | 113.04304 | 35858 ft | 456 kts | 303° |
| 2026-05-07 19:48 | -7.03806 | 112.98976 | 35856 ft | 456 kts | 303° |
| 2026-05-07 19:49 | -7.00316 | 112.93652 | 35854 ft | 456 kts | 303° |
| 2026-05-07 19:49 | -6.96820 | 112.88324 | 35848 ft | 456 kts | 303° |
| 2026-05-07 19:50 | -6.93323 | 112.82992 | 35855 ft | 456 kts | 302° |
| 2026-05-07 19:50 | -6.89853 | 112.77702 | 35855 ft | 456 kts | 302° |
| 2026-05-07 19:51 | -6.86337 | 112.72348 | 35869 ft | 455 kts | 302° |
| 2026-05-07 19:51 | -6.82851 | 112.67035 | 35860 ft | 455 kts | 303° |
| 2026-05-07 19:52 | -6.79390 | 112.61763 | 35854 ft | 455 kts | 302° |
| 2026-05-07 19:52 | -6.75907 | 112.56456 | 35861 ft | 454 kts | 302° |
| 2026-05-07 19:53 | -6.72431 | 112.51162 | 35857 ft | 453 kts | 302° |
| 2026-05-07 19:53 | -6.68955 | 112.45875 | 35851 ft | 453 kts | 302° |
| 2026-05-07 19:54 | -6.65482 | 112.40590 | 35854 ft | 453 kts | 302° |
| 2026-05-07 19:54 | -6.62011 | 112.35312 | 35847 ft | 453 kts | 302° |
| 2026-05-07 19:55 | -6.58538 | 112.30025 | 35836 ft | 453 kts | 302° |
| 2026-05-07 19:55 | -6.55064 | 112.24750 | 35844 ft | 452 kts | 302° |
| 2026-05-07 19:56 | -6.51589 | 112.19471 | 35831 ft | 453 kts | 303° |
| 2026-05-07 19:56 | -6.48116 | 112.14190 | 35834 ft | 453 kts | 303° |
| 2026-05-07 19:57 | -6.44638 | 112.08902 | 35834 ft | 453 kts | 303° |
| 2026-05-07 19:57 | -6.41148 | 112.03615 | 35832 ft | 454 kts | 303° |
| 2026-05-07 19:58 | -6.37652 | 111.98322 | 35840 ft | 454 kts | 303° |
| 2026-05-07 19:58 | -6.34166 | 111.93026 | 35845 ft | 454 kts | 302° |
| 2026-05-07 19:59 | -6.30687 | 111.87732 | 35847 ft | 454 kts | 302° |
| 2026-05-07 19:59 | -6.27202 | 111.82444 | 35842 ft | 454 kts | 302° |
| 2026-05-07 20:00 | -6.23710 | 111.77158 | 35843 ft | 454 kts | 302° |
| 2026-05-07 20:00 | -6.20223 | 111.71883 | 35866 ft | 453 kts | 302° |
| 2026-05-07 20:01 | -6.16759 | 111.66651 | 35864 ft | 452 kts | 302° |
| 2026-05-07 20:01 | -6.13285 | 111.61381 | 35855 ft | 452 kts | 303° |
| 2026-05-07 20:02 | -6.09814 | 111.56108 | 35844 ft | 453 kts | 302° |
| 2026-05-07 20:02 | -6.06328 | 111.50835 | 35843 ft | 453 kts | 303° |
| 2026-05-07 20:03 | -6.02837 | 111.45556 | 35843 ft | 453 kts | 302° |
| 2026-05-07 20:03 | -5.99350 | 111.40278 | 35842 ft | 454 kts | 302° |
| 2026-05-07 20:04 | -5.95860 | 111.34996 | 35840 ft | 454 kts | 303° |
| 2026-05-07 20:04 | -5.92357 | 111.29714 | 35831 ft | 455 kts | 303° |
| 2026-05-07 20:05 | -5.89166 | 111.24244 | 35829 ft | 454 kts | 291° |
| 2026-05-07 20:05 | -5.88240 | 111.21223 | 35833 ft | 453 kts | 280° |
| 2026-05-07 20:05 | -5.87858 | 111.18093 | 35836 ft | 452 kts | 271° |
| 2026-05-07 20:06 | -5.88377 | 111.11827 | 35832 ft | 451 kts | 263° |
| 2026-05-07 20:06 | -5.89067 | 111.05565 | 35832 ft | 451 kts | 263° |
| 2026-05-07 20:07 | -5.89747 | 110.99299 | 35840 ft | 451 kts | 263° |
| 2026-05-07 20:07 | -5.90438 | 110.93034 | 35837 ft | 451 kts | 263° |
| 2026-05-07 20:08 | -5.91147 | 110.86771 | 35839 ft | 452 kts | 263° |
| 2026-05-07 20:08 | -5.91850 | 110.80502 | 35844 ft | 451 kts | 264° |
| 2026-05-07 20:09 | -5.92536 | 110.74234 | 35835 ft | 452 kts | 264° |
| 2026-05-07 20:10 | -5.93576 | 110.64829 | 35839 ft | 452 kts | 264° |
| 2026-05-07 20:10 | -5.94270 | 110.58554 | 35842 ft | 452 kts | 264° |
| 2026-05-07 20:11 | -5.94963 | 110.52285 | 35841 ft | 452 kts | 264° |
| 2026-05-07 20:11 | -5.95652 | 110.46009 | 35844 ft | 452 kts | 264° |
| 2026-05-07 20:12 | -5.96344 | 110.39739 | 35841 ft | 452 kts | 264° |
| 2026-05-07 20:12 | -5.96502 | 110.33441 | 35845 ft | 451 kts | 270° |
| 2026-05-07 20:13 | -5.96507 | 110.27134 | 35837 ft | 452 kts | 270° |
| 2026-05-07 20:13 | -5.96508 | 110.20828 | 35842 ft | 451 kts | 270° |
| 2026-05-07 20:14 | -5.96497 | 110.14521 | 35835 ft | 452 kts | 270° |
| 2026-05-07 20:14 | -5.96499 | 110.08211 | 35840 ft | 451 kts | 270° |
| 2026-05-07 20:15 | -5.96499 | 110.01908 | 35839 ft | 451 kts | 270° |
| 2026-05-07 20:15 | -5.96496 | 109.95601 | 35840 ft | 451 kts | 270° |
| 2026-05-07 20:16 | -5.96494 | 109.89344 | 35841 ft | 451 kts | 270° |
| 2026-05-07 20:16 | -5.96495 | 109.83039 | 35836 ft | 451 kts | 270° |
| 2026-05-07 20:17 | -5.96488 | 109.76737 | 35840 ft | 451 kts | 270° |
| 2026-05-07 20:17 | -5.96478 | 109.71454 | 35830 ft | 452 kts | 271° |
| 2026-05-07 20:18 | -5.96465 | 109.65148 | 35841 ft | 451 kts | 270° |
| 2026-05-07 20:18 | -5.96468 | 109.58883 | 35840 ft | 452 kts | 270° |
| 2026-05-07 20:19 | -5.96464 | 109.52576 | 35844 ft | 451 kts | 271° |
| 2026-05-07 20:19 | -5.96447 | 109.46271 | 35837 ft | 452 kts | 270° |
| 2026-05-07 20:20 | -5.96433 | 109.39960 | 35837 ft | 452 kts | 271° |
| 2026-05-07 20:20 | -5.96426 | 109.33645 | 35833 ft | 452 kts | 270° |
| 2026-05-07 20:21 | -5.96419 | 109.27328 | 35839 ft | 452 kts | 271° |
| 2026-05-07 20:21 | -5.96407 | 109.21008 | 35838 ft | 452 kts | 271° |
| 2026-05-07 20:22 | -5.96395 | 109.14690 | 35838 ft | 452 kts | 271° |
| 2026-05-07 20:22 | -5.96380 | 109.08371 | 35834 ft | 453 kts | 271° |
| 2026-05-07 20:23 | -5.96369 | 109.02044 | 35831 ft | 453 kts | 271° |
| 2026-05-07 20:23 | -5.96354 | 108.95713 | 35828 ft | 453 kts | 271° |
| 2026-05-07 20:24 | -5.96340 | 108.89373 | 35825 ft | 454 kts | 271° |
| 2026-05-07 20:24 | -5.96321 | 108.83033 | 35833 ft | 454 kts | 271° |
| 2026-05-07 20:25 | -5.96308 | 108.76693 | 35832 ft | 454 kts | 270° |
| 2026-05-07 20:25 | -5.96294 | 108.70347 | 35828 ft | 455 kts | 271° |
| 2026-05-07 20:26 | -5.96274 | 108.63988 | 35822 ft | 456 kts | 271° |
| 2026-05-07 20:26 | -5.96262 | 108.60800 | 35599 ft | 457 kts | 271° |
| 2026-05-07 20:26 | -5.96253 | 108.57611 | 35357 ft | 457 kts | 270° |
| 2026-05-07 20:26 | -5.96243 | 108.54406 | 34575 ft | 462 kts | 271° |
| 2026-05-07 20:27 | -5.96230 | 108.51159 | 33655 ft | 468 kts | 271° |
| 2026-05-07 20:27 | -5.96218 | 108.47871 | 32661 ft | 473 kts | 270° |
| 2026-05-07 20:27 | -5.96210 | 108.44550 | 31644 ft | 478 kts | 270° |
| 2026-05-07 20:27 | -5.96207 | 108.41190 | 30693 ft | 482 kts | 270° |
| 2026-05-07 20:28 | -5.96206 | 108.37841 | 30094 ft | 478 kts | 270° |
| 2026-05-07 20:28 | -5.96206 | 108.34555 | 29327 ft | 475 kts | 270° |
| 2026-05-07 20:28 | -5.96205 | 108.31255 | 28651 ft | 470 kts | 270° |
| 2026-05-07 20:28 | -5.96204 | 108.27942 | 27965 ft | 465 kts | 270° |
| 2026-05-07 20:29 | -5.96201 | 108.24751 | 27307 ft | 461 kts | 270° |
| 2026-05-07 20:29 | -5.96198 | 108.21540 | 26648 ft | 458 kts | 271° |
| 2026-05-07 20:29 | -5.96193 | 108.18356 | 25994 ft | 455 kts | 271° |
| 2026-05-07 20:29 | -5.96188 | 108.15190 | 25346 ft | 452 kts | 270° |
| 2026-05-07 20:30 | -5.96184 | 108.12045 | 24714 ft | 449 kts | 271° |
| 2026-05-07 20:30 | -5.96181 | 108.08921 | 24087 ft | 446 kts | 271° |
| 2026-05-07 20:30 | -5.96177 | 108.05813 | 23486 ft | 443 kts | 271° |
| 2026-05-07 20:30 | -5.96169 | 108.02732 | 22941 ft | 437 kts | 271° |
| 2026-05-07 20:31 | -5.96163 | 107.99732 | 22805 ft | 421 kts | 271° |
| 2026-05-07 20:31 | -5.96159 | 107.96861 | 22777 ft | 403 kts | 270° |
| 2026-05-07 20:31 | -5.96159 | 107.94074 | 22412 ft | 396 kts | 271° |
| 2026-05-07 20:31 | -5.96162 | 107.91316 | 21915 ft | 394 kts | 270° |
| 2026-05-07 20:32 | -5.96168 | 107.88579 | 21466 ft | 390 kts | 270° |
| 2026-05-07 20:32 | -5.96172 | 107.85862 | 21036 ft | 387 kts | 270° |
| 2026-05-07 20:32 | -5.96172 | 107.83172 | 20570 ft | 385 kts | 270° |
| 2026-05-07 20:32 | -5.96171 | 107.80492 | 20119 ft | 382 kts | 270° |
| 2026-05-07 20:33 | -5.96168 | 107.77837 | 19511 ft | 377 kts | 270° |
| 2026-05-07 20:33 | -5.96166 | 107.75210 | 18767 ft | 374 kts | 270° |
| 2026-05-07 20:33 | -5.96164 | 107.72612 | 18037 ft | 370 kts | 270° |
| 2026-05-07 20:33 | -5.96162 | 107.70044 | 17289 ft | 365 kts | 270° |
| 2026-05-07 20:34 | -5.96159 | 107.67530 | 16849 ft | 353 kts | 270° |
| 2026-05-07 20:34 | -5.96157 | 107.65118 | 16797 ft | 341 kts | 270° |
| 2026-05-07 20:34 | -5.96158 | 107.62725 | 16437 ft | 343 kts | 269° |
| 2026-05-07 20:34 | -5.96161 | 107.60346 | 15900 ft | 337 kts | 269° |
| 2026-05-07 20:35 | -5.96164 | 107.58000 | 15427 ft | 334 kts | 270° |
| 2026-05-07 20:35 | -5.96167 | 107.55683 | 14962 ft | 331 kts | 270° |
| 2026-05-07 20:35 | -5.96169 | 107.53383 | 14493 ft | 330 kts | 270° |
| 2026-05-07 20:35 | -5.96166 | 107.51063 | 14082 ft | 332 kts | 270° |
| 2026-05-07 20:36 | -5.96163 | 107.48754 | 13672 ft | 329 kts | 270° |
| 2026-05-07 20:36 | -5.96163 | 107.46463 | 13061 ft | 325 kts | 270° |
| 2026-05-07 20:36 | -5.96164 | 107.44210 | 12608 ft | 320 kts | 270° |
| 2026-05-07 20:36 | -5.96164 | 107.41982 | 12160 ft | 317 kts | 270° |
| 2026-05-07 20:37 | -5.96163 | 107.39776 | 11715 ft | 315 kts | 270° |
| 2026-05-07 20:37 | -5.96161 | 107.37586 | 11278 ft | 313 kts | 269° |
| 2026-05-07 20:37 | -5.96162 | 107.35436 | 10986 ft | 300 kts | 269° |
| 2026-05-07 20:37 | -5.96163 | 107.33394 | 10968 ft | 287 kts | 269° |
| 2026-05-07 20:38 | -5.96165 | 107.31403 | 11009 ft | 289 kts | 269° |
| 2026-05-07 20:38 | -5.96164 | 107.29338 | 10632 ft | 294 kts | 269° |
| 2026-05-07 20:38 | -5.96162 | 107.27306 | 10368 ft | 289 kts | 269° |
| 2026-05-07 20:38 | -5.96159 | 107.25299 | 9841 ft | 287 kts | 269° |
| 2026-05-07 20:39 | -5.96154 | 107.23325 | 9274 ft | 285 kts | 269° |
| 2026-05-07 20:39 | -5.96150 | 107.21322 | 8803 ft | 281 kts | 269° |
| 2026-05-07 20:39 | -5.96147 | 107.19369 | 8387 ft | 280 kts | 269° |
| 2026-05-07 20:39 | -5.96145 | 107.17432 | 7974 ft | 282 kts | 269° |
| 2026-05-07 20:40 | -5.96143 | 107.15461 | 7609 ft | 281 kts | 269° |
| 2026-05-07 20:40 | -5.96140 | 107.13499 | 7219 ft | 282 kts | 269° |
| 2026-05-07 20:40 | -5.96136 | 107.11571 | 7100 ft | 270 kts | 269° |
| 2026-05-07 20:40 | -5.96322 | 107.09745 | 6979 ft | 258 kts | 253° |
| 2026-05-07 20:41 | -5.96935 | 107.08049 | 6612 ft | 259 kts | 247° |
| 2026-05-07 20:41 | -5.97598 | 107.06365 | 6228 ft | 260 kts | 247° |
| 2026-05-07 20:41 | -5.98264 | 107.04670 | 5856 ft | 261 kts | 247° |
| 2026-05-07 20:41 | -5.98927 | 107.02975 | 5478 ft | 261 kts | 247° |
| 2026-05-07 20:42 | -5.99589 | 107.01284 | 5132 ft | 260 kts | 247° |
| 2026-05-07 20:42 | -6.00251 | 106.99592 | 4781 ft | 260 kts | 247° |
| 2026-05-07 20:42 | -6.00914 | 106.97896 | 4416 ft | 261 kts | 247° |
| 2026-05-07 20:42 | -6.01570 | 106.96216 | 4080 ft | 253 kts | 247° |
| 2026-05-07 20:43 | -6.02188 | 106.94628 | 4003 ft | 233 kts | 247° |
| 2026-05-07 20:43 | -6.02753 | 106.93175 | 4013 ft | 214 kts | 246° |
| 2026-05-07 20:43 | -6.03269 | 106.91869 | 4018 ft | 190 kts | 245° |
| 2026-05-07 20:43 | -6.03744 | 106.90697 | 4001 ft | 175 kts | 245° |
| 2026-05-07 20:44 | -6.04188 | 106.89594 | 3998 ft | 168 kts | 245° |
| 2026-05-07 20:44 | -6.04667 | 106.88406 | 3932 ft | 198 kts | 246° |
| 2026-05-07 20:44 | -6.05188 | 106.87102 | 3715 ft | 202 kts | 246° |
| 2026-05-07 20:44 | -6.05710 | 106.85792 | 3624 ft | 203 kts | 246° |
| 2026-05-07 20:45 | -6.06236 | 106.84474 | 3411 ft | 203 kts | 246° |
| 2026-05-07 20:45 | -6.06758 | 106.83165 | 3175 ft | 201 kts | 246° |
| 2026-05-07 20:45 | -6.07277 | 106.81865 | 2922 ft | 200 kts | 246° |
| 2026-05-07 20:45 | -6.07795 | 106.80568 | 2667 ft | 200 kts | 246° |
| 2026-05-07 20:46 | -6.08311 | 106.79274 | 2414 ft | 199 kts | 246° |
| 2026-05-07 20:46 | -6.08821 | 106.77995 | 2155 ft | 193 kts | 246° |
| 2026-05-07 20:46 | -6.09305 | 106.76780 | 1911 ft | 182 kts | 246° |
| 2026-05-07 20:46 | -6.09758 | 106.75644 | 1714 ft | 170 kts | 246° |
| 2026-05-07 20:47 | -6.10190 | 106.74562 | 1473 ft | 163 kts | 246° |
| 2026-05-07 20:47 | -6.10595 | 106.73546 | 1276 ft | 152 kts | 245° |
| 2026-05-07 20:47 | -6.10976 | 106.72591 | 1088 ft | 147 kts | 246° |
| 2026-05-07 20:47 | -6.11361 | 106.71626 | 907 ft | 146 kts | 246° |
| 2026-05-07 20:48 | -6.11737 | 106.70685 | 731 ft | 143 kts | 246° |
| 2026-05-07 20:48 | -6.12108 | 106.69755 | 550 ft | 143 kts | 246° |
| 2026-05-07 20:48 | -6.12471 | 106.68827 | 393 ft | 145 kts | 247° |
| 2026-05-07 20:48 | -6.12826 | 106.67891 | 216 ft | 143 kts | 244° |
| 2026-05-07 20:49 | -6.13210 | 106.66977 | 59 ft | 140 kts | 248° |
| 2026-05-07 20:49 | -6.13523 | 106.66171 | 39 ft | 101 kts | 246° |
| 2026-05-07 20:49 | -6.13724 | 106.65674 | 37 ft | 53 kts | 248° |
| 2026-05-07 20:49 | -6.13843 | 106.65375 | 39 ft | 36 kts | 249° |
| 2026-05-07 20:50 | -6.13889 | 106.65147 | 40 ft | 25 kts | 270° |
| 2026-05-07 20:50 | -6.13866 | 106.65015 | 38 ft | 14 kts | 302° |
| 2026-05-07 20:50 | -6.13783 | 106.64969 | 39 ft | 13 kts | 338° |
| 2026-05-07 20:50 | -6.13702 | 106.64936 | 39 ft | 12 kts | 338° |
| 2026-05-07 20:51 | -6.13618 | 106.64904 | 38 ft | 18 kts | 338° |
| 2026-05-07 20:51 | -6.13486 | 106.64851 | 38 ft | 21 kts | 338° |
| 2026-05-07 20:51 | -6.13342 | 106.64794 | 38 ft | 23 kts | 338° |
| 2026-05-07 20:51 | -6.13186 | 106.64733 | 38 ft | 23 kts | 339° |
| 2026-05-07 20:52 | -6.13030 | 106.64670 | 38 ft | 25 kts | 338° |
| 2026-05-07 20:52 | -6.12894 | 106.64616 | 38 ft | 18 kts | 338° |
| 2026-05-07 20:52 | -6.12789 | 106.64574 | 38 ft | 11 kts | 339° |
| 2026-05-07 20:52 | -6.12727 | 106.64593 | 38 ft | 9 kts | 51° |
| 2026-05-07 20:53 | -6.12704 | 106.64647 | 38 ft | 9 kts | 69° |
| 2026-05-07 20:53 | -6.12671 | 106.64729 | 38 ft | 16 kts | 68° |
| 2026-05-07 20:53 | -6.12626 | 106.64838 | 37 ft | 17 kts | 59° |
| 2026-05-07 20:53 | -6.12519 | 106.64840 | 38 ft | 16 kts | 339° |
| 2026-05-07 20:54 | -6.12420 | 106.64801 | 38 ft | 15 kts | 338° |
| 2026-05-07 20:54 | -6.12346 | 106.64772 | 38 ft | 8 kts | 342° |
| 2026-05-07 20:54 | -6.12295 | 106.64766 | 38 ft | 7 kts | 1° |
| 2026-05-07 20:54 | -6.12253 | 106.64780 | 37 ft | 6 kts | 37° |
| 2026-05-07 20:55 | -6.12243 | 106.64813 | 38 ft | 4 kts | 99° |
| 2026-05-07 20:55 | -6.12258 | 106.64833 | 37 ft | 3 kts | 128° |
| 2026-05-07 20:55 | -6.12269 | 106.64840 | 38 ft | 1 kts | 138° |
| 2026-05-07 20:55 | -6.12280 | 106.64850 | 38 ft | 2 kts | 140° |
| 2026-05-07 20:56 | -6.12286 | 106.64855 | 38 ft | 0 kts | 139° |